Henderson, AR

9:01 AM CDT on July 11, 2014 (GMT -0500)
West Plains Municipal (KUNO) Elev 1227 ft | 36.88 °N, 91.91 °W | Change Station

Current weather conditions updated 8 minutes ago

Mostly Cloudy
Mostly Cloudy
72 °F
Feels Like 72 °F
N
5
Wind Variable Wind from SSE

Today is forecast to be Much Warmer than yesterday.

Today
High -- | Low -- °F
--% Chance of Precip.
Yesterday
High -- | Low -- °F
Precip. -- in
6:00 AM 8:28 PM
Waxing Gibbous, 99% visible
Pressure 30.16 in
Visibility 10.0 miles
Clouds Mostly Cloudy 6000 ft
Dew Point 66 °F
Humidity 81%
Rainfall 0.00 in
Snow Depth Not available.
UV 2 out of 12
Pollen 4.40 out of 12
Air Quality Not available.
Flu Activity No Activity
METAR KUNO 111353Z AUTO 16004KT 10SM BKN060 22/19 A3019 RMK AO2 SLP213 T02220189

More Conditions Fewer Conditions

Pressure 30.16 in
Visibility 10.0 miles
Clouds Mostly Cloudy 6000 ft
Dew Point 66 °F
Humidity 81%
Rainfall 0.00 in
Snow Depth Not available.
UV 2 out of 12
Pollen 4.40 out of 12
Air Quality Not available.
Flu Activity No Activity
METAR KUNO 111353Z AUTO 16004KT 10SM BKN060 22/19 A3019 RMK AO2 SLP213 T02220189

More Conditions Fewer Conditions

10-Day Weather Forecast

Almanac

Astronomy

Jul. 11, 2014 Rise Set
Actual Time 6:00 AM CDT 8:28 PM CDT
Civil Twilight 5:30 AM CDT 8:58 PM CDT
Nautical Twilight 4:53 AM CDT 9:35 PM CDT
Astronomical Twilight 4:12 AM CDT 10:15 PM CDT
Moon 7:41 PM CDT 5:11 AM CDT
Length of Visible Light 15h 27m
Length of Day
14h 28m
Tomorrow will be 1m 1s shorter.
Waxing Gibbous, 99% of the Moon is Illuminated
Today
Waxing Gibbous
Jul 12
Full
Jul 18
Last Quarter
Jul 26
New
Aug 3
First Quarter

Today's Extremes

State Highs State Lows

Community

WunderPhotos

Upload Photos

1,732,473 photos uploaded!

Nearby

Snow Depth

Station Depth Elevation
No new snow has been reported.

Earthquake Activity

City Distance Mag. Time & Date
No recent earthquake activity has been reported nearby.
Minimum magnitude displayed is 2.5.

Coastal Water Temperatures

Place Temperature
No Stations Reporting

Nearby Weather Stations

Station Location Temp. Heat Index Dew Point Humidity Wind Precip. Elev Updated Type
Mallard Point on Lake Norfork, Mountain Home, AR 73.6 °F 71 °F 71 °F 91% NE  at  0.0 mph - / hr 810 ft 8:55 AM CDT Normal
Tank Rea Insurance Agency, Inc., Mountain Home, AR 77.8 °F 80 °F 69 °F 75% North  at  0.0 mph 0.00 in / hr 797 ft 9:01 AM CDT Rapid Fire
Amateur Radio W7NMD, Mountain Home, AR 74.7 °F 74 °F 71 °F 89% SE  at  0.0 mph 0.00 in / hr 940 ft 9:01 AM CDT Rapid Fire
County Road 15, Mountain Home, AR 76.0 °F 76 °F 72 °F 88% SSE  at  2.0 mph 0.00 in / hr 984 ft 9:00 AM CDT Normal
High Ridge, Midway-Lakeview, AR 73.6 °F - 73 °F 98% SE  at  2.2 mph 0.00 in / hr 900 ft 8:53 AM CDT Normal
Calico Rock, AR 72.7 °F - 70 °F 91% West  at  0.0 mph 0.00 in / hr 666 ft 9:01 AM CDT Rapid Fire
Cotter White River Bluff, Cotter, AR 73.5 °F 70 °F 72 °F 94% South  at  0.0 mph 0.00 in / hr 535 ft 8:52 AM CDT Normal

Show More Stations Show Fewer Stations